sensor_id;sensor_type;location;lat;lon;timestamp;noise_LAeq;noise_LA_min;noise_LA_max;noise_LA01;noise_LA95
75467;Laerm;64050;50.634;3.062;2024-02-21T00:01:47;48.20;44.75;50.85;;
75467;Laerm;64050;50.634;3.062;2024-02-21T00:04:12;48.31;45.07;51.49;;
75467;Laerm;64050;50.634;3.062;2024-02-21T00:06:37;42.45;35.23;50.55;;
75467;Laerm;64050;50.634;3.062;2024-02-21T00:09:02;41.90;35.00;50.30;;
75467;Laerm;64050;50.634;3.062;2024-02-21T00:11:28;48.18;44.76;51.13;;
75467;Laerm;64050;50.634;3.062;2024-02-21T00:13:53;45.48;34.62;53.92;;
75467;Laerm;64050;50.634;3.062;2024-02-21T00:16:18;37.94;35.39;45.55;;
75467;Laerm;64050;50.634;3.062;2024-02-21T00:18:44;43.41;35.46;50.59;;
75467;Laerm;64050;50.634;3.062;2024-02-21T00:21:09;48.16;45.18;50.67;;
75467;Laerm;64050;50.634;3.062;2024-02-21T00:23:34;48.10;35.26;51.02;;
75467;Laerm;64050;50.634;3.062;2024-02-21T00:25:59;36.81;34.10;40.13;;
75467;Laerm;64050;50.634;3.062;2024-02-21T00:28:25;37.38;34.53;44.39;;
75467;Laerm;64050;50.634;3.062;2024-02-21T00:30:50;45.52;35.75;51.00;;
75467;Laerm;64050;50.634;3.062;2024-02-21T00:33:17;48.28;44.78;54.46;;
75467;Laerm;64050;50.634;3.062;2024-02-21T00:35:43;48.04;35.98;51.37;;
75467;Laerm;64050;50.634;3.062;2024-02-21T00:38:08;37.01;34.27;41.78;;
75467;Laerm;64050;50.634;3.062;2024-02-21T00:40:33;43.09;35.19;57.91;;
75467;Laerm;64050;50.634;3.062;2024-02-21T00:42:59;48.33;45.46;50.91;;
75467;Laerm;64050;50.634;3.062;2024-02-21T00:45:24;46.62;35.21;50.38;;
75467;Laerm;64050;50.634;3.062;2024-02-21T00:47:49;37.32;34.59;42.50;;
75467;Laerm;64050;50.634;3.062;2024-02-21T00:50:14;41.67;34.50;50.13;;
75467;Laerm;64050;50.634;3.062;2024-02-21T00:52:40;48.06;44.88;50.78;;
75467;Laerm;64050;50.634;3.062;2024-02-21T00:55:05;43.75;34.23;50.92;;
75467;Laerm;64050;50.634;3.062;2024-02-21T00:57:30;37.11;34.22;42.06;;
75467;Laerm;64050;50.634;3.062;2024-02-21T00:59:56;38.02;35.33;42.94;;
75467;Laerm;64050;50.634;3.062;2024-02-21T01:02:22;45.83;36.08;52.03;;
75467;Laerm;64050;50.634;3.062;2024-02-21T01:04:47;48.08;45.07;50.77;;
75467;Laerm;64050;50.634;3.062;2024-02-21T01:07:13;46.75;34.16;50.88;;
75467;Laerm;64050;50.634;3.062;2024-02-21T01:09:38;36.61;34.43;46.05;;
75467;Laerm;64050;50.634;3.062;2024-02-21T01:12:03;37.13;34.46;45.74;;
75467;Laerm;64050;50.634;3.062;2024-02-21T01:14:28;47.79;34.82;51.12;;
75467;Laerm;64050;50.634;3.062;2024-02-21T01:16:54;48.10;44.63;50.94;;
75467;Laerm;64050;50.634;3.062;2024-02-21T01:19:19;43.85;35.48;54.90;;
75467;Laerm;64050;50.634;3.062;2024-02-21T01:21:44;40.86;38.76;44.59;;
75467;Laerm;64050;50.634;3.062;2024-02-21T01:24:09;47.39;38.78;54.07;;
75467;Laerm;64050;50.634;3.062;2024-02-21T01:29:09;38.21;34.85;43.48;;
75467;Laerm;64050;50.634;3.062;2024-02-21T01:31:35;37.33;34.59;40.76;;
75467;Laerm;64050;50.634;3.062;2024-02-21T01:34:00;46.67;34.92;50.33;;
75467;Laerm;64050;50.634;3.062;2024-02-21T01:36:25;48.57;45.49;50.90;;
75467;Laerm;64050;50.634;3.062;2024-02-21T01:38:50;42.21;35.39;51.12;;
75467;Laerm;64050;50.634;3.062;2024-02-21T01:41:16;37.74;34.73;41.54;;
75467;Laerm;64050;50.634;3.062;2024-02-21T01:43:41;38.41;34.73;45.69;;
75467;Laerm;64050;50.634;3.062;2024-02-21T01:46:06;47.89;39.10;50.97;;
75467;Laerm;64050;50.634;3.062;2024-02-21T01:48:32;48.07;44.52;50.47;;
75467;Laerm;64050;50.634;3.062;2024-02-21T01:50:58;44.02;34.18;50.46;;
75467;Laerm;64050;50.634;3.062;2024-02-21T01:53:25;40.08;35.65;43.78;;
75467;Laerm;64050;50.634;3.062;2024-02-21T01:55:52;44.35;35.76;50.23;;
75467;Laerm;64050;50.634;3.062;2024-02-21T01:58:18;48.22;45.03;50.73;;
75467;Laerm;64050;50.634;3.062;2024-02-21T02:00:44;39.62;36.02;50.01;;
75467;Laerm;64050;50.634;3.062;2024-02-21T02:03:10;40.73;36.23;42.99;;
75467;Laerm;64050;50.634;3.062;2024-02-21T02:05:41;44.15;34.50;50.14;;
75467;Laerm;64050;50.634;3.062;2024-02-21T02:08:06;48.13;45.31;50.62;;
75467;Laerm;64050;50.634;3.062;2024-02-21T02:10:32;40.01;35.28;50.20;;
75467;Laerm;64050;50.634;3.062;2024-02-21T02:12:57;41.98;36.76;61.36;;
75467;Laerm;64050;50.634;3.062;2024-02-21T02:15:22;38.15;35.15;41.48;;
75467;Laerm;64050;50.634;3.062;2024-02-21T02:17:47;46.91;37.42;50.82;;
75467;Laerm;64050;50.634;3.062;2024-02-21T02:20:13;48.40;44.80;62.16;;
75467;Laerm;64050;50.634;3.062;2024-02-21T02:22:38;44.35;35.07;60.62;;
75467;Laerm;64050;50.634;3.062;2024-02-21T02:25:04;37.30;35.00;40.46;;
75467;Laerm;64050;50.634;3.062;2024-02-21T02:27:29;37.70;35.03;40.49;;
75467;Laerm;64050;50.634;3.062;2024-02-21T02:29:54;48.30;36.62;51.25;;
75467;Laerm;64050;50.634;3.062;2024-02-21T02:32:19;49.21;45.46;55.71;;
75467;Laerm;64050;50.634;3.062;2024-02-21T02:34:45;45.05;35.81;50.41;;
75467;Laerm;64050;50.634;3.062;2024-02-21T02:37:10;37.67;34.60;41.83;;
75467;Laerm;64050;50.634;3.062;2024-02-21T02:39:35;45.48;35.10;51.08;;
75467;Laerm;64050;50.634;3.062;2024-02-21T02:42:01;48.56;37.82;50.89;;
75467;Laerm;64050;50.634;3.062;2024-02-21T02:44:26;38.41;34.98;47.95;;
75467;Laerm;64050;50.634;3.062;2024-02-21T02:46:51;37.73;34.60;41.94;;
75467;Laerm;64050;50.634;3.062;2024-02-21T02:49:17;45.61;35.27;50.41;;
75467;Laerm;64050;50.634;3.062;2024-02-21T02:51:42;48.18;34.58;51.09;;
75467;Laerm;64050;50.634;3.062;2024-02-21T02:54:08;36.94;34.65;45.67;;
75467;Laerm;64050;50.634;3.062;2024-02-21T02:56:33;37.55;35.19;45.34;;
75467;Laerm;64050;50.634;3.062;2024-02-21T02:58:59;39.50;35.67;44.19;;
75467;Laerm;64050;50.634;3.062;2024-02-21T03:01:24;46.88;38.92;50.89;;
75467;Laerm;64050;50.634;3.062;2024-02-21T03:03:49;48.19;44.88;51.05;;
75467;Laerm;64050;50.634;3.062;2024-02-21T03:06:15;44.09;35.71;50.77;;
75467;Laerm;64050;50.634;3.062;2024-02-21T03:08:40;39.09;34.84;43.90;;
75467;Laerm;64050;50.634;3.062;2024-02-21T03:11:05;40.56;35.47;48.87;;
75467;Laerm;64050;50.634;3.062;2024-02-21T03:13:30;47.50;34.66;51.02;;
75467;Laerm;64050;50.634;3.062;2024-02-21T03:15:56;45.43;35.32;50.69;;
75467;Laerm;64050;50.634;3.062;2024-02-21T03:18:21;38.73;35.60;42.72;;
75467;Laerm;64050;50.634;3.062;2024-02-21T03:20:46;40.70;36.49;44.13;;
75467;Laerm;64050;50.634;3.062;2024-02-21T03:23:11;42.21;35.32;55.77;;
75467;Laerm;64050;50.634;3.062;2024-02-21T03:25:36;48.50;45.08;56.75;;
75467;Laerm;64050;50.634;3.062;2024-02-21T03:28:02;43.27;36.87;58.07;;
75467;Laerm;64050;50.634;3.062;2024-02-21T03:30:27;42.85;39.43;55.95;;
75467;Laerm;64050;50.634;3.062;2024-02-21T03:32:52;41.83;36.00;54.68;;
75467;Laerm;64050;50.634;3.062;2024-02-21T03:35:17;48.07;36.52;57.89;;
75467;Laerm;64050;50.634;3.062;2024-02-21T03:37:44;48.58;45.29;54.91;;
75467;Laerm;64050;50.634;3.062;2024-02-21T03:40:10;45.66;36.13;55.95;;
75467;Laerm;64050;50.634;3.062;2024-02-21T03:42:35;40.43;36.07;54.12;;
75467;Laerm;64050;50.634;3.062;2024-02-21T03:45:01;42.87;36.68;58.88;;
75467;Laerm;64050;50.634;3.062;2024-02-21T03:47:26;49.08;45.52;59.30;;
75467;Laerm;64050;50.634;3.062;2024-02-21T03:49:51;46.99;36.67;56.84;;
75467;Laerm;64050;50.634;3.062;2024-02-21T03:52:16;42.24;36.12;57.62;;
75467;Laerm;64050;50.634;3.062;2024-02-21T03:54:41;42.91;35.93;57.82;;
75467;Laerm;64050;50.634;3.062;2024-02-21T03:57:07;48.70;45.78;59.78;;
75467;Laerm;64050;50.634;3.062;2024-02-21T03:59:32;48.11;37.95;50.98;;
75467;Laerm;64050;50.634;3.062;2024-02-21T04:01:57;40.36;37.41;47.82;;
75467;Laerm;64050;50.634;3.062;2024-02-21T04:04:23;41.38;37.22;57.92;;
75467;Laerm;64050;50.634;3.062;2024-02-21T04:06:49;42.52;37.00;56.93;;
75467;Laerm;64050;50.634;3.062;2024-02-21T04:09:14;42.11;36.35;56.92;;
75467;Laerm;64050;50.634;3.062;2024-02-21T04:11:39;42.64;36.42;60.95;;
75467;Laerm;64050;50.634;3.062;2024-02-21T04:14:05;48.71;36.31;59.78;;
75467;Laerm;64050;50.634;3.062;2024-02-21T04:16:30;48.64;36.37;61.41;;
75467;Laerm;64050;50.634;3.062;2024-02-21T04:18:55;45.35;35.61;62.83;;
75467;Laerm;64050;50.634;3.062;2024-02-21T04:21:20;49.19;45.27;61.52;;
75467;Laerm;64050;50.634;3.062;2024-02-21T04:23:46;46.17;36.83;60.18;;
75467;Laerm;64050;50.634;3.062;2024-02-21T04:26:11;46.76;36.08;58.16;;
75467;Laerm;64050;50.634;3.062;2024-02-21T04:28:36;48.40;45.05;51.06;;
75467;Laerm;64050;50.634;3.062;2024-02-21T04:31:01;46.84;35.78;50.93;;
75467;Laerm;64050;50.634;3.062;2024-02-21T04:33:26;41.15;35.35;58.00;;
75467;Laerm;64050;50.634;3.062;2024-02-21T04:35:52;44.17;35.67;62.44;;
75467;Laerm;64050;50.634;3.062;2024-02-21T04:38:19;49.15;45.25;63.16;;
75467;Laerm;64050;50.634;3.062;2024-02-21T04:40:45;48.80;45.21;58.79;;
75467;Laerm;64050;50.634;3.062;2024-02-21T04:43:10;45.25;37.67;59.14;;
75467;Laerm;64050;50.634;3.062;2024-02-21T04:45:35;44.72;40.04;57.57;;
75467;Laerm;64050;50.634;3.062;2024-02-21T04:48:00;50.15;40.52;61.36;;
75467;Laerm;64050;50.634;3.062;2024-02-21T04:50:26;48.10;40.09;56.98;;
75467;Laerm;64050;50.634;3.062;2024-02-21T04:52:52;43.82;40.48;54.44;;
75467;Laerm;64050;50.634;3.062;2024-02-21T04:55:17;44.33;40.97;50.93;;
75467;Laerm;64050;50.634;3.062;2024-02-21T04:57:42;48.92;42.38;56.29;;
75467;Laerm;64050;50.634;3.062;2024-02-21T05:00:08;49.17;42.93;53.92;;
75467;Laerm;64050;50.634;3.062;2024-02-21T05:02:34;45.36;40.91;54.23;;
75467;Laerm;64050;50.634;3.062;2024-02-21T05:04:59;44.47;41.31;47.77;;
75467;Laerm;64050;50.634;3.062;2024-02-21T05:07:24;43.92;40.96;47.83;;
75467;Laerm;64050;50.634;3.062;2024-02-21T05:09:49;49.46;41.79;59.85;;
75467;Laerm;64050;50.634;3.062;2024-02-21T05:12:15;49.35;40.94;60.62;;
75467;Laerm;64050;50.634;3.062;2024-02-21T05:14:40;45.52;40.33;57.27;;
75467;Laerm;64050;50.634;3.062;2024-02-21T05:17:05;45.31;40.66;57.62;;
75467;Laerm;64050;50.634;3.062;2024-02-21T05:19:30;47.52;41.10;58.31;;
75467;Laerm;64050;50.634;3.062;2024-02-21T05:21:56;50.30;46.22;56.72;;
75467;Laerm;64050;50.634;3.062;2024-02-21T05:24:21;47.97;41.61;56.14;;
75467;Laerm;64050;50.634;3.062;2024-02-21T05:26:46;45.60;41.17;57.93;;
75467;Laerm;64050;50.634;3.062;2024-02-21T05:29:12;46.35;42.18;59.56;;
75467;Laerm;64050;50.634;3.062;2024-02-21T05:34:18;47.76;40.93;59.57;;
75467;Laerm;64050;50.634;3.062;2024-02-21T05:36:43;46.31;41.78;59.91;;
75467;Laerm;64050;50.634;3.062;2024-02-21T05:39:09;47.13;43.32;58.10;;
75467;Laerm;64050;50.634;3.062;2024-02-21T05:41:34;49.32;44.15;58.46;;
75467;Laerm;64050;50.634;3.062;2024-02-21T05:43:59;49.59;46.02;59.56;;
75467;Laerm;64050;50.634;3.062;2024-02-21T05:46:24;46.55;41.91;57.87;;
75467;Laerm;64050;50.634;3.062;2024-02-21T05:48:49;46.48;41.80;67.90;;
75467;Laerm;64050;50.634;3.062;2024-02-21T05:51:15;46.89;43.36;53.63;;
75467;Laerm;64050;50.634;3.062;2024-02-21T05:53:40;50.31;43.38;65.91;;
75467;Laerm;64050;50.634;3.062;2024-02-21T05:56:09;50.45;46.88;56.30;;
75467;Laerm;64050;50.634;3.062;2024-02-21T05:58:35;50.08;44.50;64.13;;
75467;Laerm;64050;50.634;3.062;2024-02-21T06:01:00;47.61;43.56;61.76;;
75467;Laerm;64050;50.634;3.062;2024-02-21T06:03:27;49.80;44.37;67.19;;
75467;Laerm;64050;50.634;3.062;2024-02-21T06:05:53;50.10;46.79;57.93;;
75467;Laerm;64050;50.634;3.062;2024-02-21T06:08:18;49.62;43.02;61.47;;
75467;Laerm;64050;50.634;3.062;2024-02-21T06:10:43;48.98;42.84;60.52;;
75467;Laerm;64050;50.634;3.062;2024-02-21T06:13:09;48.91;42.05;63.32;;
75467;Laerm;64050;50.634;3.062;2024-02-21T06:15:34;50.00;46.36;63.65;;
75467;Laerm;64050;50.634;3.062;2024-02-21T06:17:59;48.04;41.60;61.24;;
75467;Laerm;64050;50.634;3.062;2024-02-21T06:20:25;46.40;41.94;57.06;;
75467;Laerm;64050;50.634;3.062;2024-02-21T06:22:50;46.35;42.27;61.93;;
75467;Laerm;64050;50.634;3.062;2024-02-21T06:25:15;48.73;42.77;57.21;;
75467;Laerm;64050;50.634;3.062;2024-02-21T06:27:40;49.60;46.14;52.83;;
75467;Laerm;64050;50.634;3.062;2024-02-21T06:30:06;47.66;42.95;67.01;;
75467;Laerm;64050;50.634;3.062;2024-02-21T06:32:31;50.97;42.85;63.15;;
75467;Laerm;64050;50.634;3.062;2024-02-21T06:34:56;46.89;42.07;55.60;;
75467;Laerm;64050;50.634;3.062;2024-02-21T06:37:22;51.29;43.71;60.95;;
75467;Laerm;64050;50.634;3.062;2024-02-21T06:39:47;51.78;44.39;70.56;;
75467;Laerm;64050;50.634;3.062;2024-02-21T06:42:12;48.15;41.27;61.40;;
75467;Laerm;64050;50.634;3.062;2024-02-21T06:44:37;46.20;41.77;54.97;;
75467;Laerm;64050;50.634;3.062;2024-02-21T06:47:05;47.93;41.77;60.95;;
75467;Laerm;64050;50.634;3.062;2024-02-21T06:49:30;49.84;46.46;61.58;;
75467;Laerm;64050;50.634;3.062;2024-02-21T06:51:55;48.36;40.95;71.94;;
75467;Laerm;64050;50.634;3.062;2024-02-21T06:54:21;48.35;41.64;70.29;;
75467;Laerm;64050;50.634;3.062;2024-02-21T06:56:46;48.90;41.38;66.18;;
75467;Laerm;64050;50.634;3.062;2024-02-21T06:59:11;59.95;48.78;76.14;;
75467;Laerm;64050;50.634;3.062;2024-02-21T07:01:43;57.07;45.23;75.18;;
75467;Laerm;64050;50.634;3.062;2024-02-21T07:04:09;47.04;42.85;56.94;;
75467;Laerm;64050;50.634;3.062;2024-02-21T07:06:34;50.11;43.19;71.78;;
75467;Laerm;64050;50.634;3.062;2024-02-21T07:08:59;49.30;44.40;58.35;;
75467;Laerm;64050;50.634;3.062;2024-02-21T07:11:24;49.92;46.93;53.49;;
75467;Laerm;64050;50.634;3.062;2024-02-21T07:13:50;47.21;42.87;54.38;;
75467;Laerm;64050;50.634;3.062;2024-02-21T07:16:15;47.07;42.85;65.34;;
75467;Laerm;64050;50.634;3.062;2024-02-21T07:18:40;49.68;43.85;65.32;;
75467;Laerm;64050;50.634;3.062;2024-02-21T07:21:05;53.02;45.66;57.66;;
75467;Laerm;64050;50.634;3.062;2024-02-21T07:23:31;52.54;46.23;56.69;;
75467;Laerm;64050;50.634;3.062;2024-02-21T07:25:56;49.35;43.06;56.25;;
75467;Laerm;64050;50.634;3.062;2024-02-21T07:28:21;48.28;44.05;61.86;;
75467;Laerm;64050;50.634;3.062;2024-02-21T07:30:46;48.72;43.84;62.24;;
75467;Laerm;64050;50.634;3.062;2024-02-21T07:33:12;51.80;43.95;72.10;;
75467;Laerm;64050;50.634;3.062;2024-02-21T07:35:38;48.34;44.54;64.67;;
75467;Laerm;64050;50.634;3.062;2024-02-21T07:38:05;49.97;43.59;62.99;;
75467;Laerm;64050;50.634;3.062;2024-02-21T07:40:31;48.17;43.92;62.21;;
75467;Laerm;64050;50.634;3.062;2024-02-21T07:42:56;48.41;43.78;55.87;;
75467;Laerm;64050;50.634;3.062;2024-02-21T07:45:21;50.59;47.13;62.07;;
75467;Laerm;64050;50.634;3.062;2024-02-21T07:47:48;54.24;42.06;78.07;;
75467;Laerm;64050;50.634;3.062;2024-02-21T07:50:14;51.82;42.33;71.49;;
75467;Laerm;64050;50.634;3.062;2024-02-21T07:52:39;49.46;42.75;56.44;;
75467;Laerm;64050;50.634;3.062;2024-02-21T07:55:04;54.17;48.24;64.08;;
75467;Laerm;64050;50.634;3.062;2024-02-21T07:57:30;49.31;43.46;55.06;;
75467;Laerm;64050;50.634;3.062;2024-02-21T07:59:55;49.54;43.23;58.91;;
75467;Laerm;64050;50.634;3.062;2024-02-21T08:02:20;52.90;45.97;69.50;;
75467;Laerm;64050;50.634;3.062;2024-02-21T08:04:45;53.65;47.05;58.02;;
75467;Laerm;64050;50.634;3.062;2024-02-21T08:07:11;50.30;45.63;61.92;;
75467;Laerm;64050;50.634;3.062;2024-02-21T08:09:36;48.17;44.99;62.12;;
75467;Laerm;64050;50.634;3.062;2024-02-21T08:12:03;50.20;44.88;63.88;;
75467;Laerm;64050;50.634;3.062;2024-02-21T08:14:28;50.61;45.00;60.24;;
75467;Laerm;64050;50.634;3.062;2024-02-21T08:16:53;52.31;46.04;57.45;;
75467;Laerm;64050;50.634;3.062;2024-02-21T08:19:20;54.01;48.23;65.72;;
75467;Laerm;64050;50.634;3.062;2024-02-21T08:21:45;52.35;44.11;67.73;;
75467;Laerm;64050;50.634;3.062;2024-02-21T08:24:14;51.77;46.25;71.14;;
75467;Laerm;64050;50.634;3.062;2024-02-21T08:26:42;51.00;45.29;68.62;;
75467;Laerm;64050;50.634;3.062;2024-02-21T08:29:09;49.87;44.57;63.02;;
75467;Laerm;64050;50.634;3.062;2024-02-21T08:31:34;47.81;44.21;61.12;;
75467;Laerm;64050;50.634;3.062;2024-02-21T08:34:00;48.98;43.74;64.07;;
75467;Laerm;64050;50.634;3.062;2024-02-21T08:36:35;49.91;44.03;70.72;;
75467;Laerm;64050;50.634;3.062;2024-02-21T08:39:01;51.81;44.36;65.33;;
75467;Laerm;64050;50.634;3.062;2024-02-21T08:41:29;47.56;44.22;62.63;;
75467;Laerm;64050;50.634;3.062;2024-02-21T08:43:55;48.61;42.91;71.30;;
75467;Laerm;64050;50.634;3.062;2024-02-21T08:46:20;49.57;44.27;60.85;;
75467;Laerm;64050;50.634;3.062;2024-02-21T08:48:46;53.08;46.42;75.82;;
75467;Laerm;64050;50.634;3.062;2024-02-21T08:51:11;47.16;43.59;61.36;;
75467;Laerm;64050;50.634;3.062;2024-02-21T08:53:37;50.45;45.05;57.79;;
75467;Laerm;64050;50.634;3.062;2024-02-21T08:56:03;51.19;46.85;64.27;;
75467;Laerm;64050;50.634;3.062;2024-02-21T08:58:28;49.89;46.35;64.32;;
75467;Laerm;64050;50.634;3.062;2024-02-21T09:00:53;52.37;47.11;72.41;;
75467;Laerm;64050;50.634;3.062;2024-02-21T09:03:19;53.69;46.59;72.63;;
75467;Laerm;64050;50.634;3.062;2024-02-21T09:05:45;49.87;44.10;68.32;;
75467;Laerm;64050;50.634;3.062;2024-02-21T09:08:10;50.24;44.86;64.80;;
75467;Laerm;64050;50.634;3.062;2024-02-21T09:10:36;53.26;43.99;69.49;;
75467;Laerm;64050;50.634;3.062;2024-02-21T09:13:01;55.71;43.68;78.17;;
75467;Laerm;64050;50.634;3.062;2024-02-21T09:15:28;55.20;44.31;74.12;;
75467;Laerm;64050;50.634;3.062;2024-02-21T09:17:53;58.90;54.66;68.90;;
75467;Laerm;64050;50.634;3.062;2024-02-21T09:20:19;54.64;46.20;70.46;;
75467;Laerm;64050;50.634;3.062;2024-02-21T09:22:44;54.85;48.66;70.64;;
75467;Laerm;64050;50.634;3.062;2024-02-21T09:25:09;54.74;45.57;77.27;;
75467;Laerm;64050;50.634;3.062;2024-02-21T09:27:37;51.66;44.66;71.95;;
75467;Laerm;64050;50.634;3.062;2024-02-21T09:30:02;48.48;44.61;59.48;;
75467;Laerm;64050;50.634;3.062;2024-02-21T09:32:29;47.72;43.95;57.53;;
75467;Laerm;64050;50.634;3.062;2024-02-21T09:34:54;48.71;43.68;66.17;;
75467;Laerm;64050;50.634;3.062;2024-02-21T09:37:20;49.51;44.08;55.69;;
75467;Laerm;64050;50.634;3.062;2024-02-21T09:39:45;50.05;44.82;67.57;;
75467;Laerm;64050;50.634;3.062;2024-02-21T09:42:12;48.85;45.28;56.70;;
75467;Laerm;64050;50.634;3.062;2024-02-21T09:44:39;48.57;44.72;57.20;;
75467;Laerm;64050;50.634;3.062;2024-02-21T09:47:12;48.96;44.58;56.06;;
75467;Laerm;64050;50.634;3.062;2024-02-21T09:49:42;50.29;45.06;61.64;;
75467;Laerm;64050;50.634;3.062;2024-02-21T09:52:08;49.58;44.76;61.09;;
75467;Laerm;64050;50.634;3.062;2024-02-21T09:54:36;49.95;44.71;64.47;;
75467;Laerm;64050;50.634;3.062;2024-02-21T09:57:03;50.59;45.65;59.95;;
75467;Laerm;64050;50.634;3.062;2024-02-21T09:59:28;49.26;44.45;58.22;;
75467;Laerm;64050;50.634;3.062;2024-02-21T10:01:55;50.43;43.97;64.02;;
75467;Laerm;64050;50.634;3.062;2024-02-21T10:04:20;49.90;45.54;65.49;;
75467;Laerm;64050;50.634;3.062;2024-02-21T10:06:45;52.21;45.19;58.53;;
75467;Laerm;64050;50.634;3.062;2024-02-21T10:09:26;50.70;44.45;66.36;;
75467;Laerm;64050;50.634;3.062;2024-02-21T10:11:55;47.79;43.64;58.90;;
75467;Laerm;64050;50.634;3.062;2024-02-21T10:14:21;48.63;44.47;62.25;;
75467;Laerm;64050;50.634;3.062;2024-02-21T10:16:56;49.78;44.82;58.66;;
75467;Laerm;64050;50.634;3.062;2024-02-21T10:19:22;48.72;44.01;57.92;;
75467;Laerm;64050;50.634;3.062;2024-02-21T10:22:00;48.21;43.64;63.02;;
75467;Laerm;64050;50.634;3.062;2024-02-21T10:24:26;49.13;43.62;60.15;;
75467;Laerm;64050;50.634;3.062;2024-02-21T10:27:00;50.12;43.45;63.67;;
75467;Laerm;64050;50.634;3.062;2024-02-21T10:29:25;49.52;44.44;58.54;;
75467;Laerm;64050;50.634;3.062;2024-02-21T10:31:50;48.35;43.75;55.22;;
75467;Laerm;64050;50.634;3.062;2024-02-21T10:34:16;49.08;44.32;74.60;;
75467;Laerm;64050;50.634;3.062;2024-02-21T10:36:41;50.08;44.60;58.62;;
75467;Laerm;64050;50.634;3.062;2024-02-21T10:39:06;49.30;43.98;67.86;;
75467;Laerm;64050;50.634;3.062;2024-02-21T10:41:32;47.55;43.88;61.23;;
75467;Laerm;64050;50.634;3.062;2024-02-21T10:43:57;49.00;43.64;62.14;;
75467;Laerm;64050;50.634;3.062;2024-02-21T10:46:23;50.68;46.45;61.33;;
75467;Laerm;64050;50.634;3.062;2024-02-21T10:48:55;50.98;45.34;63.28;;
75467;Laerm;64050;50.634;3.062;2024-02-21T10:51:24;48.67;44.67;57.23;;
75467;Laerm;64050;50.634;3.062;2024-02-21T10:56:29;50.46;44.92;58.94;;
75467;Laerm;64050;50.634;3.062;2024-02-21T10:58:55;52.57;45.02;73.32;;
75467;Laerm;64050;50.634;3.062;2024-02-21T11:01:22;49.09;44.40;70.73;;
75467;Laerm;64050;50.634;3.062;2024-02-21T11:03:48;49.21;44.30;60.72;;
75467;Laerm;64050;50.634;3.062;2024-02-21T11:06:14;48.94;43.50;56.92;;
75467;Laerm;64050;50.634;3.062;2024-02-21T11:08:40;51.26;46.84;59.47;;
75467;Laerm;64050;50.634;3.062;2024-02-21T11:11:05;47.92;44.04;61.91;;
75467;Laerm;64050;50.634;3.062;2024-02-21T11:13:31;51.38;45.39;60.37;;
75467;Laerm;64050;50.634;3.062;2024-02-21T11:16:10;52.45;48.35;62.80;;
75467;Laerm;64050;50.634;3.062;2024-02-21T11:18:36;53.97;46.93;63.34;;
75467;Laerm;64050;50.634;3.062;2024-02-21T11:21:01;53.92;50.57;61.65;;
75467;Laerm;64050;50.634;3.062;2024-02-21T11:23:28;53.59;49.47;59.22;;
75467;Laerm;64050;50.634;3.062;2024-02-21T11:26:03;53.54;50.28;57.21;;
75467;Laerm;64050;50.634;3.062;2024-02-21T11:28:28;54.67;50.46;65.70;;
75467;Laerm;64050;50.634;3.062;2024-02-21T11:31:04;53.86;50.42;60.47;;
75467;Laerm;64050;50.634;3.062;2024-02-21T11:33:29;53.56;49.84;57.77;;
75467;Laerm;64050;50.634;3.062;2024-02-21T11:35:55;53.94;50.32;60.79;;
75467;Laerm;64050;50.634;3.062;2024-02-21T11:38:22;54.30;50.58;60.20;;
75467;Laerm;64050;50.634;3.062;2024-02-21T11:40:47;57.18;50.41;76.22;;
75467;Laerm;64050;50.634;3.062;2024-02-21T11:43:13;61.06;50.84;79.79;;
75467;Laerm;64050;50.634;3.062;2024-02-21T11:45:38;57.39;50.38;72.52;;
75467;Laerm;64050;50.634;3.062;2024-02-21T11:48:05;54.33;50.38;68.07;;
75467;Laerm;64050;50.634;3.062;2024-02-21T11:50:31;53.96;50.55;58.06;;
75467;Laerm;64050;50.634;3.062;2024-02-21T11:52:56;53.67;49.72;57.27;;
75467;Laerm;64050;50.634;3.062;2024-02-21T11:55:22;55.23;50.91;66.02;;
75467;Laerm;64050;50.634;3.062;2024-02-21T11:57:47;55.54;50.65;69.85;;
75467;Laerm;64050;50.634;3.062;2024-02-21T12:00:13;54.46;50.19;60.63;;
75467;Laerm;64050;50.634;3.062;2024-02-21T12:02:40;54.24;50.58;65.73;;
75467;Laerm;64050;50.634;3.062;2024-02-21T12:05:05;54.13;50.56;65.65;;
75467;Laerm;64050;50.634;3.062;2024-02-21T12:07:30;54.08;50.73;57.44;;
75467;Laerm;64050;50.634;3.062;2024-02-21T12:09:58;55.12;50.05;73.30;;
75467;Laerm;64050;50.634;3.062;2024-02-21T12:12:23;53.65;49.68;62.08;;
75467;Laerm;64050;50.634;3.062;2024-02-21T12:14:54;53.54;48.72;60.32;;
75467;Laerm;64050;50.634;3.062;2024-02-21T12:17:20;53.22;50.02;57.68;;
75467;Laerm;64050;50.634;3.062;2024-02-21T12:19:45;53.60;49.19;59.83;;
75467;Laerm;64050;50.634;3.062;2024-02-21T12:22:15;53.25;49.16;59.27;;
75467;Laerm;64050;50.634;3.062;2024-02-21T12:24:41;54.42;49.48;64.25;;
75467;Laerm;64050;50.634;3.062;2024-02-21T12:27:12;54.08;49.81;65.95;;
75467;Laerm;64050;50.634;3.062;2024-02-21T12:29:37;53.54;49.68;66.72;;
75467;Laerm;64050;50.634;3.062;2024-02-21T12:32:03;53.18;49.32;57.16;;
75467;Laerm;64050;50.634;3.062;2024-02-21T12:34:29;54.88;50.49;68.64;;
75467;Laerm;64050;50.634;3.062;2024-02-21T12:36:57;54.35;50.74;65.26;;
75467;Laerm;64050;50.634;3.062;2024-02-21T12:39:22;53.54;49.50;58.85;;
75467;Laerm;64050;50.634;3.062;2024-02-21T12:41:47;53.08;49.30;56.96;;
75467;Laerm;64050;50.634;3.062;2024-02-21T12:44:13;53.76;48.75;64.54;;
75467;Laerm;64050;50.634;3.062;2024-02-21T12:46:38;54.14;50.75;65.64;;
75467;Laerm;64050;50.634;3.062;2024-02-21T12:49:04;54.10;50.48;68.75;;
75467;Laerm;64050;50.634;3.062;2024-02-21T12:51:33;54.01;49.65;65.15;;
75467;Laerm;64050;50.634;3.062;2024-02-21T12:53:59;53.37;49.81;65.25;;
75467;Laerm;64050;50.634;3.062;2024-02-21T12:56:24;54.12;50.53;58.22;;
75467;Laerm;64050;50.634;3.062;2024-02-21T12:58:52;54.75;50.88;72.26;;
75467;Laerm;64050;50.634;3.062;2024-02-21T13:01:17;55.43;50.76;71.75;;
75467;Laerm;64050;50.634;3.062;2024-02-21T13:03:42;54.27;50.30;63.87;;
75467;Laerm;64050;50.634;3.062;2024-02-21T13:06:07;53.72;50.09;58.25;;
75467;Laerm;64050;50.634;3.062;2024-02-21T13:08:38;54.33;50.48;58.68;;
75467;Laerm;64050;50.634;3.062;2024-02-21T13:11:03;54.86;51.34;61.63;;
75467;Laerm;64050;50.634;3.062;2024-02-21T13:13:29;55.39;51.59;61.55;;
75467;Laerm;64050;50.634;3.062;2024-02-21T13:15:54;56.05;52.64;59.63;;
75467;Laerm;64050;50.634;3.062;2024-02-21T13:18:19;55.96;51.31;60.72;;
75467;Laerm;64050;50.634;3.062;2024-02-21T13:20:45;56.07;51.83;65.43;;
75467;Laerm;64050;50.634;3.062;2024-02-21T13:23:10;56.02;52.62;59.22;;
75467;Laerm;64050;50.634;3.062;2024-02-21T13:25:35;56.51;52.22;64.36;;
75467;Laerm;64050;50.634;3.062;2024-02-21T13:28:00;56.26;53.34;60.13;;
75467;Laerm;64050;50.634;3.062;2024-02-21T13:30:26;56.55;53.97;64.58;;
75467;Laerm;64050;50.634;3.062;2024-02-21T13:32:52;57.38;53.54;61.89;;
75467;Laerm;64050;50.634;3.062;2024-02-21T13:35:17;57.32;52.44;78.63;;
75467;Laerm;64050;50.634;3.062;2024-02-21T13:37:43;57.90;51.69;73.47;;
75467;Laerm;64050;50.634;3.062;2024-02-21T13:40:08;54.52;51.04;65.27;;
75467;Laerm;64050;50.634;3.062;2024-02-21T13:42:36;54.59;47.91;65.68;;
75467;Laerm;64050;50.634;3.062;2024-02-21T13:45:02;53.39;48.26;59.55;;